createdAt,value
2022-08-30T00:00:20.888Z,42.76
2022-08-30T00:02:48.433Z,43.36
2022-08-30T00:05:16.870Z,43.38
2022-08-30T00:07:44.048Z,43.17
2022-08-30T00:10:11.502Z,42.10
2022-08-30T00:12:38.759Z,42.39
2022-08-30T00:15:07.141Z,42.63
2022-08-30T00:17:36.511Z,41.42
2022-08-30T00:20:07.619Z,41.56
2022-08-30T00:22:34.794Z,44.09
2022-08-30T00:25:02.432Z,43.61
2022-08-30T00:27:29.967Z,41.80
2022-08-30T00:29:57.396Z,42.03
2022-08-30T00:32:24.935Z,42.14
2022-08-30T00:34:52.672Z,41.10
2022-08-30T00:37:20.177Z,42.57
2022-08-30T00:39:47.721Z,41.34
2022-08-30T00:42:15.289Z,40.84
2022-08-30T00:44:42.898Z,40.35
2022-08-30T00:47:10.384Z,43.41
2022-08-30T00:49:38.049Z,44.44
2022-08-30T00:52:05.504Z,43.54
2022-08-30T00:54:34.061Z,42.96
2022-08-30T00:57:01.237Z,41.90
2022-08-30T00:59:29.046Z,41.12
2022-08-30T01:01:56.518Z,40.83
2022-08-30T01:04:24.491Z,41.09
2022-08-30T01:06:52.039Z,41.04
2022-08-30T01:09:19.485Z,40.25
2022-08-30T01:11:46.666Z,40.11
2022-08-30T01:14:14.053Z,40.29
2022-08-30T01:16:42.585Z,39.40
2022-08-30T01:19:13.559Z,41.16
2022-08-30T01:21:48.340Z,41.73
2022-08-30T01:24:15.801Z,40.53
2022-08-30T01:26:43.006Z,41.50
2022-08-30T01:29:11.429Z,46.28
2022-08-30T01:31:39.041Z,43.05
2022-08-30T01:34:07.596Z,42.00
2022-08-30T01:36:38.099Z,42.30
2022-08-30T01:39:17.120Z,41.77
2022-08-30T01:41:44.276Z,41.31
2022-08-30T01:44:11.948Z,41.58
2022-08-30T01:46:46.291Z,42.68
2022-08-30T01:49:14.867Z,41.71
2022-08-30T01:51:42.481Z,41.44
2022-08-30T01:54:09.709Z,41.09
2022-08-30T01:56:37.044Z,40.81
2022-08-30T01:59:04.827Z,40.29
2022-08-30T02:01:32.934Z,39.89
2022-08-30T02:04:01.394Z,39.86
2022-08-30T02:06:28.777Z,41.08
2022-08-30T02:08:56.170Z,40.23
2022-08-30T02:11:23.638Z,40.17
2022-08-30T02:13:50.867Z,39.58
2022-08-30T02:16:19.771Z,39.45
2022-08-30T02:18:47.278Z,39.25
2022-08-30T02:21:14.821Z,38.98
2022-08-30T02:23:42.248Z,39.14
2022-08-30T02:26:10.065Z,38.68
2022-08-30T02:28:49.207Z,38.87
2022-08-30T02:31:20.842Z,39.11
2022-08-30T02:33:50.382Z,38.86
2022-08-30T02:36:18.123Z,39.17
2022-08-30T02:38:46.270Z,39.13
2022-08-30T02:41:13.572Z,39.34
2022-08-30T02:43:41.142Z,39.39
2022-08-30T02:46:08.468Z,39.15
2022-08-30T02:48:35.733Z,39.34
2022-08-30T02:51:09.657Z,39.52
2022-08-30T02:53:39.355Z,39.56
2022-08-30T02:56:06.890Z,39.76
2022-08-30T02:58:34.083Z,39.89
2022-08-30T03:01:01.802Z,39.70
2022-08-30T03:03:29.380Z,39.23
2022-08-30T03:05:56.592Z,39.83
2022-08-30T03:08:23.947Z,39.73
2022-08-30T03:10:51.403Z,39.71
2022-08-30T03:13:18.614Z,39.61
2022-08-30T03:15:45.789Z,39.98
2022-08-30T03:18:13.225Z,40.10
2022-08-30T03:20:40.986Z,39.88
2022-08-30T03:23:11.160Z,40.06
2022-08-30T03:25:49.121Z,40.13
2022-08-30T03:28:16.300Z,40.33
2022-08-30T03:30:43.484Z,40.17
2022-08-30T03:33:13.530Z,40.34
2022-08-30T03:35:43.831Z,40.85
2022-08-30T03:38:11.002Z,41.40
2022-08-30T03:40:38.495Z,40.73
2022-08-30T03:43:05.754Z,40.52
2022-08-30T03:45:33.436Z,41.09
2022-08-30T03:48:02.476Z,41.71
2022-08-30T03:50:30.511Z,41.39
2022-08-30T03:52:58.035Z,41.19
2022-08-30T03:55:26.615Z,41.06
2022-08-30T03:57:54.034Z,40.75
2022-08-30T04:00:21.289Z,41.01
2022-08-30T04:02:48.925Z,41.00
2022-08-30T04:05:18.618Z,41.33
2022-08-30T04:07:46.209Z,40.70
2022-08-30T04:10:13.642Z,40.84
2022-08-30T04:12:40.997Z,41.18
2022-08-30T04:15:10.484Z,41.32
2022-08-30T04:17:38.007Z,41.15
2022-08-30T04:20:05.440Z,41.33
2022-08-30T04:22:32.630Z,41.92
2022-08-30T04:25:00.082Z,42.24
2022-08-30T04:27:27.505Z,41.56
2022-08-30T04:29:56.423Z,41.42
2022-08-30T04:32:23.943Z,41.01
2022-08-30T04:34:51.113Z,40.80
2022-08-30T04:37:18.295Z,40.46
2022-08-30T04:39:48.860Z,40.36
2022-08-30T04:42:16.118Z,40.60
2022-08-30T04:44:43.333Z,43.49
2022-08-30T04:47:10.784Z,42.54
2022-08-30T04:49:38.022Z,40.46
2022-08-30T04:52:06.745Z,42.44
2022-08-30T04:54:34.172Z,43.50
2022-08-30T04:57:01.821Z,44.21
2022-08-30T04:59:28.999Z,43.84
2022-08-30T05:01:59.064Z,43.76
2022-08-30T05:04:26.310Z,42.71
2022-08-30T05:06:53.931Z,42.48
2022-08-30T05:09:21.721Z,42.16
2022-08-30T05:11:48.942Z,41.62
2022-08-30T05:14:16.112Z,42.24
2022-08-30T05:16:43.666Z,42.44
2022-08-30T05:19:10.878Z,41.97
2022-08-30T05:21:40.627Z,41.63
2022-08-30T05:24:09.269Z,44.58
2022-08-30T05:26:38.018Z,44.57
2022-08-30T05:29:05.260Z,43.55
2022-08-30T05:31:34.206Z,44.69
2022-08-30T05:34:01.691Z,41.93
2022-08-30T05:36:30.262Z,41.40
2022-08-30T05:38:57.800Z,41.48
2022-08-30T05:41:26.639Z,40.43
2022-08-30T05:43:55.276Z,39.58
2022-08-30T05:46:22.937Z,39.46
2022-08-30T05:48:50.296Z,41.32
2022-08-30T05:51:19.147Z,41.00
2022-08-30T05:53:47.337Z,40.29
2022-08-30T05:56:15.828Z,41.28
2022-08-30T05:58:43.144Z,39.93
2022-08-30T06:01:40.044Z,41.52
2022-08-30T06:04:08.551Z,40.95
2022-08-30T06:06:36.664Z,43.47
2022-08-30T06:09:05.829Z,41.85
2022-08-30T06:11:33.628Z,42.35
2022-08-30T06:14:01.262Z,42.20
2022-08-30T06:16:29.251Z,40.71
2022-08-30T06:18:58.077Z,41.58
2022-08-30T06:21:26.701Z,41.28
2022-08-30T06:23:54.338Z,40.61
2022-08-30T06:26:21.895Z,39.43
2022-08-30T06:28:49.275Z,39.73
2022-08-30T06:31:17.791Z,39.96
2022-08-30T06:33:45.363Z,41.21
2022-08-30T06:36:14.022Z,38.56
2022-08-30T06:38:41.257Z,36.81
2022-08-30T06:41:09.778Z,37.95
2022-08-30T06:43:37.432Z,38.34
2022-08-30T06:46:05.122Z,37.85
2022-08-30T06:48:32.643Z,38.64
2022-08-30T06:50:59.935Z,38.58
2022-08-30T06:53:27.483Z,38.57
2022-08-30T06:55:58.616Z,36.74
2022-08-30T06:58:25.837Z,36.97
2022-08-30T07:00:53.161Z,36.74
2022-08-30T07:03:20.648Z,35.89
2022-08-30T07:05:49.158Z,35.42
2022-08-30T07:08:17.088Z,38.07
2022-08-30T07:10:45.381Z,37.02
2022-08-30T07:13:12.660Z,36.45
2022-08-30T07:15:41.087Z,36.39
2022-08-30T07:18:27.830Z,37.29
2022-08-30T07:20:55.004Z,37.24
2022-08-30T07:23:22.615Z,38.27
2022-08-30T07:25:50.556Z,37.11
2022-08-30T07:28:17.742Z,39.26
2022-08-30T07:30:45.250Z,37.52
2022-08-30T07:33:12.531Z,37.71
2022-08-30T07:35:39.778Z,35.56
2022-08-30T07:38:07.231Z,35.04
2022-08-30T07:40:34.501Z,35.30
2022-08-30T07:43:02.386Z,34.42
2022-08-30T07:45:29.836Z,35.70
2022-08-30T07:47:57.713Z,35.74
2022-08-30T07:50:24.888Z,34.30
2022-08-30T07:52:55.152Z,34.18
2022-08-30T07:55:22.347Z,35.02
2022-08-30T07:57:49.589Z,34.08
2022-08-30T08:00:17.098Z,33.74
2022-08-30T08:02:45.554Z,32.86
2022-08-30T08:05:17.301Z,34.37
2022-08-30T08:07:46.287Z,34.88
2022-08-30T08:10:13.606Z,34.02
2022-08-30T08:12:40.965Z,32.49
2022-08-30T08:15:09.080Z,31.85
2022-08-30T08:17:36.396Z,32.05
2022-08-30T08:20:04.007Z,32.26
2022-08-30T08:22:31.446Z,32.28
2022-08-30T08:24:58.852Z,30.66
2022-08-30T08:27:26.116Z,32.52
2022-08-30T08:29:53.578Z,31.07
2022-08-30T08:32:20.758Z,31.32
2022-08-30T08:34:47.957Z,31.07
2022-08-30T08:37:15.408Z,30.16
2022-08-30T08:39:42.712Z,29.98
2022-08-30T08:42:12.885Z,31.22
2022-08-30T08:44:43.143Z,30.03
2022-08-30T08:47:18.008Z,31.15
2022-08-30T08:49:46.693Z,29.71
2022-08-30T08:52:35.209Z,29.55
2022-08-30T08:55:05.290Z,31.01
2022-08-30T08:57:33.779Z,30.24
2022-08-30T09:00:01.015Z,29.37
2022-08-30T09:02:29.895Z,33.11
2022-08-30T09:05:00.919Z,33.17
2022-08-30T09:07:30.262Z,32.05
2022-08-30T09:09:57.714Z,30.96
2022-08-30T09:12:24.884Z,29.86
2022-08-30T09:14:55.468Z,30.83
2022-08-30T09:17:23.090Z,29.60
2022-08-30T09:19:53.160Z,32.73
2022-08-30T09:22:22.011Z,32.67
2022-08-30T09:24:50.481Z,32.60
2022-08-30T09:27:36.522Z,31.63
2022-08-30T09:30:07.126Z,30.41
2022-08-30T09:32:43.312Z,31.60
2022-08-30T09:35:13.311Z,31.38
2022-08-30T09:37:41.506Z,30.99
2022-08-30T09:40:10.024Z,32.89
2022-08-30T09:42:37.656Z,31.42
2022-08-30T09:45:10.997Z,29.94
2022-08-30T09:47:40.273Z,31.86
2022-08-30T09:50:09.278Z,31.32
2022-08-30T09:52:53.236Z,30.69
2022-08-30T09:55:41.522Z,29.28
2022-08-30T09:58:12.940Z,29.71
2022-08-30T10:00:47.933Z,30.57
2022-08-30T10:03:34.869Z,30.29
2022-08-30T10:06:13.610Z,31.93
2022-08-30T10:08:45.062Z,30.40
2022-08-30T10:11:41.348Z,29.00
2022-08-30T10:14:09.506Z,30.86
2022-08-30T10:16:39.615Z,30.26
2022-08-30T10:19:25.510Z,30.42
2022-08-30T10:22:02.924Z,31.19
2022-08-30T10:24:35.176Z,31.27
2022-08-30T10:27:05.270Z,31.72
2022-08-30T10:29:34.678Z,31.51
2022-08-30T10:32:04.698Z,30.76
2022-08-30T10:34:40.148Z,30.40
2022-08-30T10:37:08.400Z,30.14
2022-08-30T10:39:41.538Z,32.34
2022-08-30T10:42:10.730Z,30.76
2022-08-30T10:44:41.219Z,31.22
2022-08-30T10:47:11.388Z,32.38
2022-08-30T10:49:40.583Z,31.46
2022-08-30T10:52:23.337Z,30.80
2022-08-30T10:54:54.843Z,30.97
2022-08-30T10:57:22.046Z,31.62
2022-08-30T10:59:52.232Z,32.21
2022-08-30T11:02:23.666Z,31.90
2022-08-30T11:04:53.837Z,30.84
2022-08-30T11:07:30.346Z,29.75
2022-08-30T11:10:00.257Z,31.15
2022-08-30T11:13:03.064Z,30.61
2022-08-30T11:15:32.280Z,32.41
2022-08-30T11:18:09.065Z,32.26
2022-08-30T11:20:39.878Z,29.65
2022-08-30T11:23:27.721Z,30.44
2022-08-30T11:26:05.726Z,30.21
2022-08-30T11:28:35.923Z,30.08
2022-08-30T11:31:04.470Z,30.53
2022-08-30T11:33:57.167Z,31.05
2022-08-30T11:36:37.483Z,31.05
2022-08-30T11:39:07.058Z,30.32
2022-08-30T11:41:41.465Z,31.18
2022-08-30T11:44:22.225Z,29.26
2022-08-30T11:46:50.671Z,28.97
2022-08-30T11:49:18.229Z,29.55
2022-08-30T11:52:26.387Z,29.56
2022-08-30T11:55:04.122Z,29.65
2022-08-30T11:57:52.614Z,29.92
2022-08-30T12:00:34.981Z,29.51
2022-08-30T12:03:03.665Z,27.98
2022-08-30T12:05:42.951Z,28.17
2022-08-30T12:08:11.672Z,26.66
2022-08-30T12:10:40.641Z,26.89
2022-08-30T12:13:08.150Z,27.22
2022-08-30T12:15:53.969Z,26.64
2022-08-30T12:18:28.917Z,27.58
2022-08-30T12:21:02.495Z,26.89
2022-08-30T12:23:44.601Z,28.16
2022-08-30T12:26:15.013Z,27.56
2022-08-30T12:28:43.539Z,28.95
2022-08-30T12:31:11.607Z,29.24
2022-08-30T12:33:41.819Z,28.48
2022-08-30T12:36:35.666Z,27.23
2022-08-30T12:39:12.236Z,27.99
2022-08-30T12:41:43.579Z,27.70
2022-08-30T12:44:15.839Z,27.39
2022-08-30T12:46:43.815Z,25.92
2022-08-30T12:49:13.198Z,26.80
2022-08-30T12:51:41.389Z,27.25
2022-08-30T12:54:15.927Z,27.19
2022-08-30T12:57:19.190Z,27.04
2022-08-30T12:59:56.696Z,29.10
2022-08-30T13:02:28.211Z,27.30
2022-08-30T13:04:56.410Z,26.85
2022-08-30T13:07:32.787Z,26.62
2022-08-30T13:10:01.602Z,25.97
2022-08-30T13:12:28.981Z,26.14
2022-08-30T13:15:31.104Z,26.22
2022-08-30T13:18:11.586Z,25.68
2022-08-30T13:20:38.763Z,26.80
2022-08-30T13:23:07.529Z,26.26
2022-08-30T13:25:38.282Z,26.52
2022-08-30T13:28:05.964Z,26.55
2022-08-30T13:30:34.284Z,26.69
2022-08-30T13:33:02.300Z,26.67
2022-08-30T13:35:30.028Z,25.91
2022-08-30T13:37:57.598Z,26.47
2022-08-30T13:40:24.922Z,25.12
2022-08-30T13:42:52.220Z,26.02
2022-08-30T13:48:07.038Z,25.34
2022-08-30T13:50:34.463Z,24.51
2022-08-30T13:53:01.744Z,24.73
2022-08-30T13:55:30.317Z,26.69
2022-08-30T13:57:58.197Z,24.58
2022-08-30T14:00:26.151Z,25.46
2022-08-30T14:02:57.313Z,25.51
2022-08-30T14:05:54.631Z,25.78
2022-08-30T14:11:15.788Z,26.26
2022-08-30T14:16:31.519Z,26.59
2022-08-30T14:19:00.249Z,27.03
2022-08-30T14:21:27.989Z,27.36
2022-08-30T14:23:56.581Z,26.99
2022-08-30T14:26:26.301Z,26.04
2022-08-30T14:28:59.780Z,26.53
2022-08-30T14:31:27.317Z,26.58
2022-08-30T14:33:56.105Z,27.59
2022-08-30T14:36:23.262Z,27.02
2022-08-30T14:38:52.063Z,26.68
2022-08-30T14:41:19.562Z,24.64
2022-08-30T14:43:46.780Z,26.40
2022-08-30T14:46:14.502Z,26.77
2022-08-30T14:48:41.816Z,25.91
2022-08-30T14:51:14.551Z,28.54
2022-08-30T14:53:42.016Z,28.71
2022-08-30T14:56:10.101Z,29.34
2022-08-30T14:58:37.378Z,28.52
2022-08-30T15:01:12.328Z,28.83
2022-08-30T15:03:40.043Z,29.11
2022-08-30T15:06:07.918Z,28.80
2022-08-30T15:08:35.395Z,29.13
2022-08-30T15:11:06.859Z,30.35
2022-08-30T15:13:34.303Z,29.80
2022-08-30T15:16:01.516Z,29.84
2022-08-30T15:18:28.681Z,29.66
2022-08-30T15:20:57.314Z,29.76
2022-08-30T15:23:24.761Z,30.25
2022-08-30T15:25:52.195Z,29.23
2022-08-30T15:28:19.895Z,29.32
2022-08-30T15:30:47.055Z,29.66
2022-08-30T15:33:14.832Z,29.46
2022-08-30T15:35:42.367Z,29.76
2022-08-30T15:38:10.410Z,29.90
2022-08-30T15:40:40.039Z,28.55
2022-08-30T15:43:07.647Z,29.50
2022-08-30T15:45:34.827Z,28.88
2022-08-30T15:48:02.103Z,29.56
2022-08-30T15:50:29.759Z,29.36
2022-08-30T15:52:57.121Z,28.67
2022-08-30T15:55:24.454Z,28.55
2022-08-30T15:57:53.917Z,28.93
2022-08-30T16:00:21.797Z,28.96
2022-08-30T16:02:51.915Z,29.08
2022-08-30T16:05:19.542Z,29.64
2022-08-30T16:07:47.011Z,30.50
2022-08-30T16:10:16.196Z,30.08
2022-08-30T16:12:43.446Z,29.95
2022-08-30T16:15:10.907Z,31.41
2022-08-30T16:17:39.347Z,30.84
2022-08-30T16:20:07.367Z,30.62
2022-08-30T16:22:35.306Z,30.67
2022-08-30T16:25:03.760Z,30.07
2022-08-30T16:27:30.915Z,30.13
2022-08-30T16:29:58.105Z,30.29
2022-08-30T16:32:25.594Z,29.32
2022-08-30T16:34:53.301Z,29.64
2022-08-30T16:37:20.515Z,30.02
2022-08-30T16:39:47.970Z,29.85
2022-08-30T16:42:20.968Z,29.16
2022-08-30T16:44:49.794Z,29.07
2022-08-30T16:47:17.243Z,28.77
2022-08-30T16:49:45.302Z,29.22
2022-08-30T16:52:12.760Z,29.43
2022-08-30T16:54:39.924Z,29.49
2022-08-30T16:57:07.157Z,28.92
2022-08-30T16:59:34.604Z,29.05
2022-08-30T17:02:02.309Z,29.48
2022-08-30T17:04:30.658Z,29.12
2022-08-30T17:06:58.090Z,28.83
2022-08-30T17:09:26.052Z,28.43
2022-08-30T17:11:53.264Z,29.01
2022-08-30T17:14:28.270Z,28.37
2022-08-30T17:16:57.213Z,28.38
2022-08-30T17:19:26.960Z,28.41
2022-08-30T17:21:56.376Z,28.46
2022-08-30T17:24:26.107Z,28.47
2022-08-30T17:26:54.483Z,28.35
2022-08-30T17:29:21.834Z,28.94
2022-08-30T17:31:51.511Z,28.88
2022-08-30T17:34:21.854Z,29.07
2022-08-30T17:36:50.606Z,28.85
2022-08-30T17:39:18.215Z,28.78
2022-08-30T17:41:50.093Z,29.10
2022-08-30T17:44:28.483Z,29.13
2022-08-30T17:46:56.275Z,28.79
2022-08-30T17:49:24.192Z,28.84
2022-08-30T17:51:56.339Z,29.12
2022-08-30T17:54:25.736Z,29.33
2022-08-30T17:56:53.581Z,29.10
2022-08-30T17:59:25.078Z,29.15
2022-08-30T18:01:53.682Z,29.24
2022-08-30T18:04:22.250Z,29.25
2022-08-30T18:06:52.444Z,29.71
2022-08-30T18:09:19.638Z,29.85
2022-08-30T18:11:48.443Z,29.86
2022-08-30T18:14:15.871Z,29.94
2022-08-30T18:16:49.417Z,30.07
2022-08-30T18:19:21.498Z,29.82
2022-08-30T18:21:48.684Z,29.96
2022-08-30T18:24:16.277Z,29.97
2022-08-30T18:26:43.759Z,30.05
2022-08-30T18:29:11.344Z,29.80
2022-08-30T18:31:38.824Z,29.81
2022-08-30T18:34:12.361Z,29.86
2022-08-30T18:36:40.354Z,30.12
2022-08-30T18:39:08.818Z,30.29
2022-08-30T18:41:42.969Z,30.49
2022-08-30T18:44:27.281Z,30.45
2022-08-30T18:46:56.196Z,30.41
2022-08-30T18:49:25.100Z,30.37
2022-08-30T18:51:52.550Z,30.31
2022-08-30T18:54:19.939Z,30.54
2022-08-30T18:56:47.575Z,30.46
2022-08-30T18:59:14.818Z,30.41
2022-08-30T19:01:42.775Z,30.52
2022-08-30T19:04:22.265Z,30.53
2022-08-30T19:06:57.716Z,30.70
2022-08-30T19:09:26.603Z,30.60
2022-08-30T19:11:55.447Z,30.92
2022-08-30T19:14:22.990Z,30.96
2022-08-30T19:16:50.841Z,31.20
2022-08-30T19:19:19.017Z,30.99
2022-08-30T19:21:46.429Z,31.19
2022-08-30T19:24:16.195Z,31.43
2022-08-30T19:26:46.969Z,31.38
2022-08-30T19:29:14.751Z,31.64
2022-08-30T19:31:44.117Z,31.58
2022-08-30T19:34:11.548Z,31.38
2022-08-30T19:36:39.481Z,31.50
2022-08-30T19:39:07.510Z,31.87
2022-08-30T19:41:34.904Z,31.77
2022-08-30T19:44:03.394Z,31.56
2022-08-30T19:46:30.967Z,31.83
2022-08-30T19:49:01.135Z,31.66
2022-08-30T19:51:28.849Z,31.84
2022-08-30T19:53:58.953Z,31.75
2022-08-30T19:56:26.625Z,31.70
2022-08-30T19:58:54.266Z,32.08
2022-08-30T20:01:32.350Z,32.16
2022-08-30T20:04:03.398Z,31.95
2022-08-30T20:06:30.955Z,32.15
2022-08-30T20:09:00.485Z,32.24
2022-08-30T20:11:28.271Z,32.25
2022-08-30T20:13:55.585Z,32.60
2022-08-30T20:16:33.127Z,32.77
2022-08-30T20:19:06.232Z,32.96
2022-08-30T20:21:33.640Z,32.53
2022-08-30T20:24:01.218Z,32.27
2022-08-30T20:26:33.756Z,32.07
2022-08-30T20:29:05.317Z,31.96
2022-08-30T20:31:33.641Z,31.80
2022-08-30T20:34:01.250Z,31.53
2022-08-30T20:36:29.143Z,31.48
2022-08-30T20:38:57.084Z,31.40
2022-08-30T20:41:25.029Z,31.37
2022-08-30T20:43:52.957Z,31.79
2022-08-30T20:46:20.740Z,32.31
2022-08-30T20:48:48.001Z,31.93
2022-08-30T20:51:16.321Z,31.75
2022-08-30T20:53:43.884Z,32.04
2022-08-30T20:56:15.416Z,31.87
2022-08-30T20:58:43.009Z,32.43
2022-08-30T21:01:10.820Z,32.25
2022-08-30T21:03:38.211Z,32.62
2022-08-30T21:06:05.702Z,32.55
2022-08-30T21:08:33.319Z,32.38
2022-08-30T21:11:01.243Z,32.25
2022-08-30T21:13:28.415Z,32.04
2022-08-30T21:15:58.328Z,31.93
2022-08-30T21:18:34.769Z,32.00
2022-08-30T21:21:09.667Z,31.77
2022-08-30T21:23:37.206Z,31.71
2022-08-30T21:26:07.136Z,31.97
2022-08-30T21:28:34.566Z,31.95
2022-08-30T21:31:08.219Z,32.14
2022-08-30T21:33:36.033Z,32.34
2022-08-30T21:36:22.435Z,32.40
2022-08-30T21:38:53.192Z,32.72
2022-08-30T21:41:23.206Z,32.90
2022-08-30T21:43:58.075Z,32.61
2022-08-30T21:46:25.949Z,32.74
2022-08-30T21:48:53.358Z,33.00
2022-08-30T21:51:20.951Z,33.11
2022-08-30T21:53:48.150Z,33.05
2022-08-30T21:56:21.431Z,32.66
2022-08-30T21:58:49.584Z,32.72
2022-08-30T22:01:23.633Z,32.56
2022-08-30T22:03:51.904Z,32.37
2022-08-30T22:06:19.095Z,32.48
2022-08-30T22:08:46.629Z,32.51
2022-08-30T22:11:18.320Z,32.35
2022-08-30T22:13:46.123Z,32.51
2022-08-30T22:16:15.499Z,32.57
2022-08-30T22:18:43.613Z,32.67
2022-08-30T22:21:11.923Z,32.44
2022-08-30T22:23:39.662Z,32.81
2022-08-30T22:26:08.413Z,32.80
2022-08-30T22:28:35.983Z,33.02
2022-08-30T22:31:03.952Z,32.84
2022-08-30T22:33:31.521Z,32.83
2022-08-30T22:35:58.836Z,32.92
2022-08-30T22:38:26.007Z,34.48
2022-08-30T22:40:54.256Z,33.73
2022-08-30T22:43:22.543Z,33.57
2022-08-30T22:45:49.818Z,33.38
2022-08-30T22:48:17.291Z,33.55
2022-08-30T22:50:44.458Z,34.02
2022-08-30T22:53:11.705Z,33.86
2022-08-30T22:55:40.070Z,33.54
2022-08-30T22:58:07.270Z,33.62
2022-08-30T23:00:34.481Z,33.51
2022-08-30T23:03:01.901Z,33.49
2022-08-30T23:05:29.112Z,33.32
2022-08-30T23:07:56.385Z,33.52
2022-08-30T23:10:28.102Z,33.57
2022-08-30T23:12:55.791Z,33.56
2022-08-30T23:15:23.238Z,34.01
2022-08-30T23:17:50.721Z,34.13
2022-08-30T23:20:17.926Z,34.04
2022-08-30T23:22:45.310Z,34.42
2022-08-30T23:25:32.176Z,35.14
2022-08-30T23:28:27.160Z,35.27
2022-08-30T23:31:13.106Z,34.75
2022-08-30T23:33:58.835Z,34.82
2022-08-30T23:36:45.057Z,34.85
2022-08-30T23:39:30.852Z,34.73
2022-08-30T23:42:17.137Z,34.59
2022-08-30T23:45:02.904Z,35.22
2022-08-30T23:47:49.142Z,35.41
2022-08-30T23:50:36.401Z,35.64
2022-08-30T23:53:23.272Z,36.84
2022-08-30T23:56:09.235Z,38.29
2022-08-30T23:58:57.684Z,36.76
